createdAt,value
2022-08-03T00:00:18.657Z,22.25
2022-08-03T00:00:51.110Z,15.32
2022-08-03T00:01:23.420Z,18.95
2022-08-03T00:01:55.768Z,15.07
2022-08-03T00:02:28.313Z,11.95
2022-08-03T00:03:00.658Z,18.55
2022-08-03T00:03:33.427Z,29.50
2022-08-03T00:04:06.269Z,39.88
2022-08-03T00:04:38.784Z,19.17
2022-08-03T00:05:11.153Z,17.65
2022-08-03T00:06:03.826Z,14.55
2022-08-03T00:06:37.250Z,34.88
2022-08-03T00:07:10.124Z,25.33
2022-08-03T00:07:42.885Z,25.00
2022-08-03T00:08:16.748Z,23.10
2022-08-03T00:08:52.221Z,27.35
2022-08-03T00:09:24.546Z,32.92
2022-08-03T00:09:57.322Z,15.15
2022-08-03T00:10:30.365Z,12.63
2022-08-03T00:11:02.700Z,27.70
2022-08-03T00:11:35.119Z,28.98
2022-08-03T00:12:07.628Z,21.08
2022-08-03T00:12:39.947Z,36.95
2022-08-03T00:13:13.432Z,27.65
2022-08-03T00:13:45.870Z,27.63
2022-08-03T00:14:18.266Z,27.70
2022-08-03T00:14:50.557Z,21.85
2022-08-03T00:15:22.919Z,35.03
2022-08-03T00:15:55.772Z,27.42
2022-08-03T00:16:28.216Z,17.60
2022-08-03T00:17:00.524Z,39.67
2022-08-03T00:17:53.733Z,20.52
2022-08-03T00:18:25.326Z,22.02
2022-08-03T00:18:57.644Z,26.42
2022-08-03T00:19:29.933Z,21.70
2022-08-03T00:20:02.375Z,18.75
2022-08-03T00:20:34.970Z,23.73
2022-08-03T00:21:07.361Z,19.17
2022-08-03T00:21:39.764Z,27.50
2022-08-03T00:22:12.131Z,22.38
2022-08-03T00:22:44.487Z,23.50
2022-08-03T00:23:17.180Z,42.53
2022-08-03T00:23:52.219Z,21.80
2022-08-03T00:24:25.058Z,27.10
2022-08-03T00:24:57.554Z,52.63
2022-08-03T00:25:30.400Z,15.52
2022-08-03T00:26:02.862Z,46.75
2022-08-03T00:26:35.284Z,15.23
2022-08-03T00:27:07.626Z,45.60
2022-08-03T00:27:39.973Z,16.42
2022-08-03T00:28:12.523Z,43.60
2022-08-03T00:28:45.837Z,25.58
2022-08-03T00:29:18.197Z,24.63
2022-08-03T00:29:59.729Z,55.33
2022-08-03T00:30:33.362Z,16.85
2022-08-03T00:31:05.876Z,27.10
2022-08-03T00:31:49.001Z,19.65
2022-08-03T00:32:24.893Z,69.88
2022-08-03T00:32:57.261Z,34.72
2022-08-03T00:33:58.306Z,21.15
2022-08-03T00:34:34.548Z,29.73
2022-08-03T00:35:35.149Z,24.05
2022-08-03T00:36:10.189Z,24.80
2022-08-03T00:36:42.545Z,40.50
2022-08-03T00:37:14.846Z,74.65
2022-08-03T00:37:48.875Z,83.63
2022-08-03T00:38:21.287Z,21.92
2022-08-03T00:38:53.634Z,68.88
2022-08-03T00:39:26.228Z,40.67
2022-08-03T00:39:59.841Z,61.67
2022-08-03T00:40:33.089Z,48.20
2022-08-03T00:41:05.577Z,58.22
2022-08-03T00:41:37.868Z,26.17
2022-08-03T00:42:10.178Z,72.57
2022-08-03T00:42:52.022Z,18.63
2022-08-03T00:43:27.899Z,38.67
2022-08-03T00:44:00.594Z,25.13
2022-08-03T00:44:39.163Z,55.00
2022-08-03T00:45:11.538Z,57.45
2022-08-03T00:45:44.484Z,75.03
2022-08-03T00:46:21.327Z,72.38
2022-08-03T00:46:54.157Z,65.70
2022-08-03T00:47:26.459Z,69.63
2022-08-03T00:47:59.508Z,49.65
2022-08-03T00:48:33.760Z,62.72
2022-08-03T00:49:06.578Z,28.02
2022-08-03T00:49:42.081Z,68.22
2022-08-03T00:50:15.248Z,14.85
2022-08-03T00:50:48.317Z,51.97
2022-08-03T00:51:24.900Z,68.90
2022-08-03T00:51:57.321Z,98.70
2022-08-03T00:52:29.706Z,84.28
2022-08-03T00:53:03.490Z,36.65
2022-08-03T00:53:36.417Z,62.95
2022-08-03T00:54:08.942Z,60.25
2022-08-03T00:54:41.405Z,87.95
2022-08-03T00:55:14.021Z,121.75
2022-08-03T00:55:46.489Z,66.25
2022-08-03T00:56:19.114Z,99.50
2022-08-03T00:56:59.796Z,116.82
2022-08-03T00:57:33.135Z,105.78
2022-08-03T00:58:08.726Z,89.43
2022-08-03T00:58:41.184Z,132.95
2022-08-03T00:59:15.184Z,121.97
2022-08-03T00:59:47.629Z,157.65
2022-08-03T01:00:22.738Z,123.68
2022-08-03T01:00:55.379Z,155.38
2022-08-03T01:01:30.648Z,185.10
2022-08-03T01:02:05.069Z,163.63
2022-08-03T01:02:37.964Z,234.02
2022-08-03T01:03:12.535Z,180.07
2022-08-03T01:03:45.044Z,188.55
2022-08-03T01:04:17.820Z,124.28
2022-08-03T01:04:50.293Z,206.98
2022-08-03T01:05:22.761Z,106.70
2022-08-03T01:05:58.613Z,155.68
2022-08-03T01:06:36.524Z,155.30
2022-08-03T01:07:20.906Z,169.32
2022-08-03T01:07:56.051Z,146.10
2022-08-03T01:08:47.883Z,179.60
2022-08-03T01:09:23.612Z,178.65
2022-08-03T01:09:55.950Z,165.52
2022-08-03T01:10:31.665Z,165.90
2022-08-03T01:11:12.846Z,154.43
2022-08-03T01:12:01.079Z,142.63
2022-08-03T01:12:39.996Z,91.63
2022-08-03T01:13:59.873Z,48.28
2022-08-03T01:14:37.299Z,189.75
2022-08-03T01:15:18.231Z,162.10
2022-08-03T01:16:09.288Z,166.50
2022-08-03T01:16:44.491Z,160.95
2022-08-03T01:17:23.535Z,85.03
2022-08-03T01:18:14.485Z,159.40
2022-08-03T01:18:55.429Z,155.68
2022-08-03T01:19:48.939Z,142.38
2022-08-03T01:20:22.356Z,136.80
2022-08-03T01:20:56.615Z,155.25
2022-08-03T01:21:36.303Z,115.00
2022-08-03T01:22:35.090Z,125.40
2022-08-03T01:23:29.061Z,144.80
2022-08-03T01:24:05.025Z,156.82
2022-08-03T01:25:21.318Z,137.82
2022-08-03T01:26:20.683Z,133.68
2022-08-03T01:26:58.979Z,178.00
2022-08-03T01:27:37.556Z,154.50
2022-08-03T01:28:20.855Z,183.05
2022-08-03T01:29:05.531Z,183.52
2022-08-03T01:29:49.940Z,164.43
2022-08-03T01:30:24.513Z,142.02
2022-08-03T01:31:04.227Z,123.68
2022-08-03T01:32:58.207Z,167.68
2022-08-03T01:32:59.184Z,166.57
2022-08-03T01:33:36.436Z,191.18
2022-08-03T01:34:14.658Z,176.73
2022-08-03T01:34:53.248Z,202.45
2022-08-03T01:35:48.861Z,136.30
2022-08-03T01:36:23.192Z,181.65
2022-08-03T01:36:56.890Z,175.32
2022-08-03T01:37:33.182Z,128.90
2022-08-03T01:38:10.229Z,52.05
2022-08-03T01:38:45.016Z,101.07
2022-08-03T01:39:21.567Z,167.75
2022-08-03T01:39:56.284Z,149.48
2022-08-03T01:40:28.940Z,154.38
2022-08-03T01:41:06.073Z,138.63
2022-08-03T01:41:45.095Z,115.35
2022-08-03T01:42:18.708Z,37.78
2022-08-03T01:42:51.977Z,112.75
2022-08-03T01:44:26.609Z,117.18
2022-08-03T01:44:30.210Z,119.40
2022-08-03T01:45:04.878Z,149.32
2022-08-03T01:45:37.664Z,114.75
2022-08-03T01:46:10.637Z,167.77
2022-08-03T01:46:47.537Z,146.15
2022-08-03T01:47:22.681Z,207.15
2022-08-03T01:47:55.880Z,196.98
2022-08-03T01:48:28.747Z,143.82
2022-08-03T01:49:01.459Z,118.22
2022-08-03T01:49:44.940Z,129.98
2022-08-03T01:50:19.450Z,188.85
2022-08-03T01:50:52.457Z,151.55
2022-08-03T01:51:25.027Z,178.70
2022-08-03T01:52:19.170Z,153.65
2022-08-03T01:52:52.226Z,173.65
2022-08-03T01:53:24.977Z,132.40
2022-08-03T01:53:59.008Z,103.43
2022-08-03T01:54:32.901Z,60.60
2022-08-03T01:55:06.135Z,87.95
2022-08-03T01:55:38.626Z,125.60
2022-08-03T01:56:12.041Z,106.97
2022-08-03T01:56:44.930Z,35.60
2022-08-03T01:57:17.884Z,46.92
2022-08-03T01:58:04.753Z,126.10
2022-08-03T01:58:40.192Z,180.18
2022-08-03T01:59:14.902Z,178.88
2022-08-03T01:59:49.048Z,206.35
2022-08-03T02:00:21.392Z,167.43
2022-08-03T02:00:58.290Z,134.13
2022-08-03T02:02:28.554Z,214.70
2022-08-03T02:02:33.623Z,259.70
2022-08-03T02:03:07.489Z,252.25
2022-08-03T02:04:00.889Z,228.93
2022-08-03T02:04:34.181Z,254.95
2022-08-03T02:05:10.675Z,267.27
2022-08-03T02:05:43.983Z,241.63
2022-08-03T02:06:59.813Z,268.25
2022-08-03T02:07:10.642Z,300.77
2022-08-03T02:07:43.988Z,253.88
2022-08-03T02:08:18.414Z,267.85
2022-08-03T02:08:51.472Z,295.13
2022-08-03T02:09:24.077Z,316.23
2022-08-03T02:09:57.413Z,200.98
2022-08-03T02:10:35.107Z,151.40
2022-08-03T02:11:08.179Z,238.82
2022-08-03T02:11:41.354Z,264.45
2022-08-03T02:12:15.276Z,262.40
2022-08-03T02:12:51.221Z,240.90
2022-08-03T02:13:24.677Z,210.50
2022-08-03T02:13:58.796Z,240.88
2022-08-03T02:14:31.515Z,216.98
2022-08-03T02:15:04.117Z,177.90
2022-08-03T02:15:37.618Z,229.00
2022-08-03T02:16:10.859Z,171.32
2022-08-03T02:16:45.701Z,190.45
2022-08-03T02:17:19.112Z,207.00
2022-08-03T02:18:11.805Z,110.43
2022-08-03T02:18:44.505Z,195.07
2022-08-03T02:19:20.714Z,198.23
2022-08-03T02:19:53.924Z,135.68
2022-08-03T02:20:27.724Z,123.07
2022-08-03T02:21:05.381Z,194.57
2022-08-03T02:21:56.426Z,213.80
2022-08-03T02:22:33.943Z,220.93
2022-08-03T02:23:07.503Z,209.68
2022-08-03T02:23:40.583Z,200.07
2022-08-03T02:24:12.956Z,225.02
2022-08-03T02:24:45.452Z,186.02
2022-08-03T02:25:23.772Z,197.30
2022-08-03T02:26:01.816Z,169.75
2022-08-03T02:26:36.139Z,190.63
2022-08-03T02:27:12.546Z,101.72
2022-08-03T02:27:59.246Z,75.10
2022-08-03T02:28:38.704Z,174.13
2022-08-03T02:29:17.896Z,178.65
2022-08-03T02:29:53.836Z,172.75
2022-08-03T02:30:31.135Z,160.80
2022-08-03T02:31:05.901Z,136.10
2022-08-03T02:31:38.968Z,136.02
2022-08-03T02:32:13.386Z,121.80
2022-08-03T02:32:51.944Z,118.60
2022-08-03T02:33:30.385Z,120.75
2022-08-03T02:34:06.728Z,112.47
2022-08-03T02:34:40.759Z,114.47
2022-08-03T02:35:14.103Z,124.05
2022-08-03T02:35:47.361Z,108.32
2022-08-03T02:36:22.266Z,107.28
2022-08-03T02:36:55.777Z,111.68
2022-08-03T02:37:31.131Z,112.55
2022-08-03T02:38:04.837Z,111.13
2022-08-03T02:38:39.175Z,107.70
2022-08-03T02:39:13.590Z,99.57
2022-08-03T02:39:46.941Z,105.15
2022-08-03T02:40:20.462Z,83.28
2022-08-03T02:40:55.732Z,108.57
2022-08-03T02:41:33.214Z,107.32
2022-08-03T02:42:08.930Z,91.30
2022-08-03T02:42:42.708Z,40.38
2022-08-03T02:43:17.139Z,98.30
2022-08-03T02:44:06.600Z,113.05
2022-08-03T02:44:40.769Z,149.82
2022-08-03T02:45:14.280Z,148.43
2022-08-03T02:45:48.324Z,132.55
2022-08-03T02:46:21.094Z,128.93
2022-08-03T02:46:56.181Z,61.97
2022-08-03T02:47:53.787Z,169.77
2022-08-03T02:48:25.190Z,150.93
2022-08-03T02:48:57.787Z,169.90
2022-08-03T02:49:49.530Z,145.30
2022-08-03T02:50:23.625Z,188.98
2022-08-03T02:50:58.251Z,138.18
2022-08-03T02:51:33.714Z,127.30
2022-08-03T02:52:12.585Z,117.68
2022-08-03T02:52:48.291Z,126.60
2022-08-03T02:53:21.558Z,160.48
2022-08-03T02:53:55.243Z,121.38
2022-08-03T02:54:28.065Z,130.43
2022-08-03T02:55:03.271Z,82.90
2022-08-03T02:55:36.107Z,170.38
2022-08-03T02:56:15.977Z,241.82
2022-08-03T02:56:48.735Z,183.73
2022-08-03T02:57:21.654Z,228.93
2022-08-03T02:57:54.488Z,161.55
2022-08-03T02:58:27.395Z,179.38
2022-08-03T02:59:00.483Z,198.18
2022-08-03T02:59:32.906Z,195.75
2022-08-03T03:00:05.848Z,149.95
2022-08-03T03:00:38.692Z,185.32
2022-08-03T03:01:11.900Z,189.75
2022-08-03T03:01:45.858Z,110.30
2022-08-03T03:02:19.007Z,142.65
2022-08-03T03:02:52.186Z,196.55
2022-08-03T03:03:25.625Z,155.68
2022-08-03T03:04:00.345Z,198.43
2022-08-03T03:04:35.078Z,252.95
2022-08-03T03:05:54.450Z,176.55
2022-08-03T03:06:05.716Z,199.95
2022-08-03T03:06:38.943Z,198.05
2022-08-03T03:07:15.614Z,164.75
2022-08-03T03:07:51.990Z,145.95
2022-08-03T03:08:28.207Z,189.63
2022-08-03T03:09:01.678Z,181.82
2022-08-03T03:09:41.685Z,114.57
2022-08-03T03:10:15.721Z,191.93
2022-08-03T03:10:48.657Z,163.32
2022-08-03T03:11:26.288Z,152.23
2022-08-03T03:11:58.892Z,155.07
2022-08-03T03:12:31.992Z,138.90
2022-08-03T03:13:04.613Z,150.00
2022-08-03T03:13:37.457Z,141.73
2022-08-03T03:14:11.491Z,198.65
2022-08-03T03:14:43.835Z,177.73
2022-08-03T03:15:16.657Z,202.35
2022-08-03T03:15:49.262Z,197.50
2022-08-03T03:16:22.175Z,242.70
2022-08-03T03:16:56.650Z,293.25
2022-08-03T03:17:31.025Z,245.68
2022-08-03T03:18:04.220Z,249.23
2022-08-03T03:18:36.952Z,231.93
2022-08-03T03:19:11.607Z,211.73
2022-08-03T03:19:45.679Z,216.57
2022-08-03T03:20:29.121Z,167.40
2022-08-03T03:21:04.581Z,164.75
2022-08-03T03:21:37.706Z,165.38
2022-08-03T03:22:10.882Z,170.68
2022-08-03T03:22:45.198Z,125.97
2022-08-03T03:23:17.910Z,138.93
2022-08-03T03:23:50.741Z,82.95
2022-08-03T03:24:23.333Z,126.43
2022-08-03T03:24:56.178Z,98.15
2022-08-03T03:25:29.691Z,88.05
2022-08-03T03:26:02.517Z,23.70
2022-08-03T03:26:37.361Z,74.07
2022-08-03T03:27:16.589Z,110.50
2022-08-03T03:27:50.908Z,100.40
2022-08-03T03:28:24.322Z,100.18
2022-08-03T03:28:57.110Z,77.10
2022-08-03T03:29:29.959Z,66.38
2022-08-03T03:30:11.230Z,105.60
2022-08-03T03:30:43.771Z,92.53
2022-08-03T03:31:16.173Z,64.72
2022-08-03T03:31:48.600Z,26.65
2022-08-03T03:32:20.966Z,96.82
2022-08-03T03:32:53.983Z,85.78
2022-08-03T03:33:28.349Z,73.30
2022-08-03T03:34:01.323Z,36.60
2022-08-03T03:34:33.958Z,26.85
2022-08-03T03:35:07.059Z,34.72
2022-08-03T03:35:41.547Z,49.65
2022-08-03T03:36:15.066Z,50.25
2022-08-03T03:36:47.490Z,29.00
2022-08-03T03:37:19.859Z,22.08
2022-08-03T03:37:52.323Z,21.48
2022-08-03T03:38:24.685Z,32.95
2022-08-03T03:38:57.445Z,20.67
2022-08-03T03:39:29.800Z,19.40
2022-08-03T03:40:02.299Z,17.65
2022-08-03T03:40:41.056Z,19.70
2022-08-03T03:41:13.443Z,27.02
2022-08-03T03:41:46.122Z,46.28
2022-08-03T03:42:18.687Z,37.72
2022-08-03T03:42:51.151Z,23.50
2022-08-03T03:43:23.842Z,59.97
2022-08-03T03:43:56.373Z,43.58
2022-08-03T03:44:29.411Z,53.70
2022-08-03T03:45:05.356Z,30.83
2022-08-03T03:45:38.285Z,54.35
2022-08-03T03:46:12.956Z,47.20
2022-08-03T03:46:45.691Z,38.63
2022-08-03T03:47:18.384Z,69.80
2022-08-03T03:48:05.487Z,67.40
2022-08-03T03:48:39.165Z,66.25
2022-08-03T03:49:13.479Z,17.05
2022-08-03T03:49:46.335Z,58.20
2022-08-03T03:50:20.936Z,75.95
2022-08-03T03:50:53.488Z,68.93
2022-08-03T03:51:25.856Z,37.90
2022-08-03T03:51:58.432Z,58.42
2022-08-03T03:52:31.824Z,64.05
2022-08-03T03:53:04.281Z,53.08
2022-08-03T03:53:36.697Z,62.50
2022-08-03T03:54:09.419Z,52.80
2022-08-03T03:54:42.622Z,70.03
2022-08-03T03:55:18.417Z,43.03
2022-08-03T03:56:01.939Z,19.63
2022-08-03T03:56:35.432Z,74.43
2022-08-03T03:57:07.810Z,19.75
2022-08-03T03:57:41.879Z,73.43
2022-08-03T03:58:14.596Z,57.60
2022-08-03T03:58:46.975Z,15.95
2022-08-03T03:59:19.430Z,56.60
2022-08-03T03:59:52.238Z,76.28
2022-08-03T04:00:24.748Z,79.78
2022-08-03T04:00:57.161Z,87.35
2022-08-03T04:01:29.693Z,79.20
2022-08-03T04:02:02.447Z,97.40
2022-08-03T04:02:34.881Z,108.40
2022-08-03T04:03:07.632Z,89.57
2022-08-03T04:03:40.647Z,106.85
2022-08-03T04:04:31.696Z,122.28
2022-08-03T04:05:27.245Z,112.47
2022-08-03T04:06:17.880Z,146.30
2022-08-03T04:07:08.807Z,169.70
2022-08-03T04:08:07.315Z,177.63
2022-08-03T04:08:58.776Z,198.18
2022-08-03T04:09:50.223Z,147.13
2022-08-03T04:10:41.802Z,182.05
2022-08-03T04:11:20.769Z,204.75
2022-08-03T04:12:02.511Z,148.60
2022-08-03T04:12:36.777Z,157.40
2022-08-03T04:13:10.944Z,203.38
2022-08-03T04:13:47.606Z,131.38
2022-08-03T04:14:22.979Z,193.98
2022-08-03T04:14:57.199Z,148.73
2022-08-03T04:15:31.995Z,162.95
2022-08-03T04:16:05.322Z,184.30
2022-08-03T04:16:43.975Z,195.32
2022-08-03T04:17:17.242Z,178.73
2022-08-03T04:17:51.475Z,140.07
2022-08-03T04:18:24.780Z,187.00
2022-08-03T04:19:02.278Z,196.45
2022-08-03T04:19:37.938Z,193.30
2022-08-03T04:20:11.117Z,126.55
2022-08-03T04:20:45.832Z,219.23
2022-08-03T04:21:20.768Z,171.70
2022-08-03T04:21:57.043Z,159.30
2022-08-03T04:22:32.449Z,183.73
2022-08-03T04:23:05.508Z,173.90
2022-08-03T04:23:49.391Z,215.65
2022-08-03T04:24:22.659Z,151.40
2022-08-03T04:25:01.271Z,230.27
2022-08-03T04:25:35.393Z,217.38
2022-08-03T04:26:10.284Z,166.50
2022-08-03T04:26:43.439Z,155.25
2022-08-03T04:27:18.489Z,227.70
2022-08-03T04:28:07.789Z,186.00
2022-08-03T04:28:50.578Z,243.50
2022-08-03T04:29:24.216Z,194.50
2022-08-03T04:29:57.486Z,99.63
2022-08-03T04:30:31.625Z,195.48
2022-08-03T04:31:04.794Z,236.40
2022-08-03T04:31:38.805Z,212.13
2022-08-03T04:32:11.508Z,230.55
2022-08-03T04:32:46.223Z,274.85
2022-08-03T04:33:23.617Z,264.15
2022-08-03T04:34:02.313Z,243.23
2022-08-03T04:34:35.026Z,222.60
2022-08-03T04:35:07.997Z,234.45
2022-08-03T04:36:01.258Z,233.45
2022-08-03T04:36:37.737Z,226.68
2022-08-03T04:37:12.167Z,177.02
2022-08-03T04:37:49.130Z,169.00
2022-08-03T04:38:23.473Z,221.63
2022-08-03T04:39:04.139Z,264.52
2022-08-03T04:39:37.326Z,220.05
2022-08-03T04:40:13.706Z,262.27
2022-08-03T04:40:46.637Z,247.88
2022-08-03T04:41:20.022Z,236.98
2022-08-03T04:42:02.258Z,256.67
2022-08-03T04:42:41.292Z,233.45
2022-08-03T04:43:15.076Z,176.27
2022-08-03T04:43:48.704Z,222.05
2022-08-03T04:44:22.422Z,197.52
2022-08-03T04:45:03.062Z,225.93
2022-08-03T04:45:35.985Z,237.35
2022-08-03T04:46:08.925Z,229.10
2022-08-03T04:46:42.400Z,103.55
2022-08-03T04:47:23.049Z,218.10
2022-08-03T04:47:55.751Z,222.25
2022-08-03T04:48:28.674Z,241.70
2022-08-03T04:49:01.915Z,109.45
2022-08-03T04:49:36.349Z,109.93
2022-08-03T04:50:12.490Z,175.60
2022-08-03T04:50:46.834Z,217.25
2022-08-03T04:51:19.318Z,134.23
2022-08-03T04:51:52.150Z,175.95
2022-08-03T04:52:24.918Z,202.95
2022-08-03T04:52:57.314Z,169.35
2022-08-03T04:53:29.662Z,165.00
2022-08-03T04:54:02.774Z,156.88
2022-08-03T04:54:50.413Z,186.55
2022-08-03T04:55:30.391Z,176.98
2022-08-03T04:56:06.172Z,114.05
2022-08-03T04:56:42.050Z,152.38
2022-08-03T04:57:21.981Z,144.68
2022-08-03T04:57:55.956Z,163.88
2022-08-03T04:58:28.666Z,146.68
2022-08-03T04:59:01.024Z,126.03
2022-08-03T04:59:33.798Z,133.38
2022-08-03T05:00:12.132Z,131.77
2022-08-03T05:00:45.813Z,143.85
2022-08-03T05:01:18.921Z,120.45
2022-08-03T05:01:51.367Z,151.98
2022-08-03T05:02:23.977Z,147.93
2022-08-03T05:02:56.681Z,134.82
2022-08-03T05:03:29.167Z,144.80
2022-08-03T05:04:01.601Z,23.33
2022-08-03T05:04:34.138Z,114.18
2022-08-03T05:05:06.795Z,76.72
2022-08-03T05:05:49.828Z,51.88
2022-08-03T05:06:25.161Z,67.15
2022-08-03T05:06:57.594Z,143.55
2022-08-03T05:07:35.596Z,146.32
2022-08-03T05:08:11.106Z,116.38
2022-08-03T05:08:47.070Z,117.68
2022-08-03T05:09:50.783Z,112.18
2022-08-03T05:10:16.100Z,163.45
2022-08-03T05:10:50.107Z,118.32
2022-08-03T05:11:22.521Z,145.02
2022-08-03T05:11:55.789Z,115.53
2022-08-03T05:12:32.314Z,101.68
2022-08-03T05:13:05.451Z,57.95
2022-08-03T05:13:38.016Z,66.90
2022-08-03T05:14:10.400Z,103.93
2022-08-03T05:14:42.773Z,40.17
2022-08-03T05:15:16.247Z,56.00
2022-08-03T05:15:49.464Z,118.82
2022-08-03T05:16:21.877Z,49.80
2022-08-03T05:16:54.225Z,79.78
2022-08-03T05:17:26.881Z,98.45
2022-08-03T05:17:59.325Z,92.82
2022-08-03T05:18:32.567Z,79.95
2022-08-03T05:19:05.006Z,44.22
2022-08-03T05:19:37.397Z,65.82
2022-08-03T05:20:10.456Z,103.47
2022-08-03T05:20:42.798Z,93.68
2022-08-03T05:21:16.934Z,83.85
2022-08-03T05:21:52.448Z,89.68
2022-08-03T05:22:25.410Z,87.07
2022-08-03T05:22:58.165Z,90.60
2022-08-03T05:23:30.883Z,50.80
2022-08-03T05:24:03.273Z,61.10
2022-08-03T05:24:36.091Z,80.45
2022-08-03T05:25:08.967Z,89.65
2022-08-03T05:25:46.099Z,102.18
2022-08-03T05:26:22.270Z,118.07
2022-08-03T05:26:54.658Z,78.88
2022-08-03T05:27:27.224Z,31.45
2022-08-03T05:27:59.689Z,74.43
2022-08-03T05:28:32.026Z,89.63
2022-08-03T05:29:04.413Z,102.97
2022-08-03T05:29:36.880Z,56.58
2022-08-03T05:30:29.722Z,18.55
2022-08-03T05:31:02.532Z,34.38
2022-08-03T05:31:34.971Z,99.68
2022-08-03T05:32:08.448Z,81.20
2022-08-03T05:32:40.920Z,85.60
2022-08-03T05:33:13.589Z,111.65
2022-08-03T05:33:45.973Z,63.00
2022-08-03T05:34:18.334Z,78.38
2022-08-03T05:34:50.799Z,91.07
2022-08-03T05:36:00.766Z,76.10
2022-08-03T05:36:18.160Z,102.95
2022-08-03T05:36:50.600Z,93.25
2022-08-03T05:37:22.976Z,100.40
2022-08-03T05:37:55.347Z,99.57
2022-08-03T05:38:34.130Z,91.30
2022-08-03T05:39:40.221Z,108.22
2022-08-03T05:40:12.860Z,131.05
2022-08-03T05:40:46.989Z,120.05
2022-08-03T05:41:36.912Z,148.05
2022-08-03T05:42:10.842Z,101.57
2022-08-03T05:42:43.174Z,69.60
2022-08-03T05:43:16.967Z,60.05
2022-08-03T05:43:49.297Z,18.10
2022-08-03T05:44:22.388Z,109.25
2022-08-03T05:44:54.748Z,88.97
2022-08-03T05:45:28.491Z,85.35
2022-08-03T05:46:11.487Z,101.13
2022-08-03T05:46:45.108Z,124.75
2022-08-03T05:47:17.452Z,99.60
2022-08-03T05:47:51.424Z,55.05
2022-08-03T05:48:23.719Z,91.45
2022-08-03T05:48:56.231Z,101.78
2022-08-03T05:49:28.650Z,132.80
2022-08-03T05:50:01.026Z,78.70
2022-08-03T05:50:33.849Z,82.28
2022-08-03T05:51:07.923Z,96.00
2022-08-03T05:51:40.241Z,99.18
2022-08-03T05:52:22.586Z,115.00
2022-08-03T05:52:57.811Z,112.45
2022-08-03T05:53:33.066Z,20.35
2022-08-03T05:54:05.539Z,89.18
2022-08-03T05:54:56.452Z,106.05
2022-08-03T05:55:29.976Z,23.58
2022-08-03T05:56:03.580Z,63.55
2022-08-03T05:56:48.021Z,96.07
2022-08-03T05:57:20.425Z,101.63
2022-08-03T05:57:55.193Z,84.82
2022-08-03T05:58:29.857Z,103.85
2022-08-03T05:59:22.435Z,95.38
2022-08-03T05:59:58.200Z,141.48
2022-08-03T06:00:31.352Z,113.25
2022-08-03T06:01:03.770Z,23.58
2022-08-03T06:01:37.394Z,100.28
2022-08-03T06:02:09.830Z,20.13
2022-08-03T06:02:42.435Z,54.35
2022-08-03T06:03:14.808Z,107.50
2022-08-03T06:03:47.203Z,107.63
2022-08-03T06:04:20.068Z,77.72
2022-08-03T06:04:52.375Z,87.63
2022-08-03T06:05:27.432Z,96.45
2022-08-03T06:06:00.351Z,23.40
2022-08-03T06:06:33.090Z,44.47
2022-08-03T06:07:05.540Z,70.70
2022-08-03T06:07:38.219Z,97.93
2022-08-03T06:08:10.539Z,81.63
2022-08-03T06:08:49.027Z,18.88
2022-08-03T06:09:21.394Z,25.45
2022-08-03T06:10:34.109Z,45.75
2022-08-03T06:10:46.231Z,109.55
2022-08-03T06:11:18.688Z,105.43
2022-08-03T06:11:51.062Z,102.28
2022-08-03T06:12:23.560Z,110.20
2022-08-03T06:12:56.149Z,64.85
2022-08-03T06:13:28.500Z,46.83
2022-08-03T06:14:00.841Z,100.53
2022-08-03T06:14:33.387Z,92.80
2022-08-03T06:15:05.924Z,109.65
2022-08-03T06:15:40.348Z,59.22
2022-08-03T06:16:12.664Z,98.35
2022-08-03T06:16:45.067Z,93.47
2022-08-03T06:17:17.587Z,90.65
2022-08-03T06:17:51.068Z,98.53
2022-08-03T06:18:24.834Z,108.50
2022-08-03T06:18:57.153Z,137.73
2022-08-03T06:19:29.644Z,167.48
2022-08-03T06:20:01.972Z,129.20
2022-08-03T06:20:34.498Z,114.60
2022-08-03T06:21:14.124Z,130.15
2022-08-03T06:21:48.219Z,165.10
2022-08-03T06:22:20.916Z,115.18
2022-08-03T06:23:00.493Z,62.00
2022-08-03T06:23:53.390Z,29.63
2022-08-03T06:24:26.568Z,129.35
2022-08-03T06:25:03.683Z,95.43
2022-08-03T06:25:37.431Z,130.88
2022-08-03T06:26:09.981Z,178.55
2022-08-03T06:26:44.524Z,119.30
2022-08-03T06:27:16.931Z,118.78
2022-08-03T06:27:49.325Z,63.45
2022-08-03T06:28:53.247Z,80.47
2022-08-03T06:29:14.193Z,109.13
2022-08-03T06:29:46.550Z,125.97
2022-08-03T06:30:21.203Z,134.10
2022-08-03T06:30:53.882Z,93.50
2022-08-03T06:31:32.689Z,51.28
2022-08-03T06:32:06.311Z,84.40
2022-08-03T06:32:39.419Z,94.20
2022-08-03T06:33:11.802Z,71.00
2022-08-03T06:34:29.075Z,113.43
2022-08-03T06:34:36.718Z,86.72
2022-08-03T06:35:10.003Z,114.85
2022-08-03T06:35:42.542Z,138.50
2022-08-03T06:36:17.660Z,172.90
2022-08-03T06:36:52.261Z,70.97
2022-08-03T06:37:25.285Z,118.18
2022-08-03T06:37:57.801Z,136.07
2022-08-03T06:38:30.244Z,94.72
2022-08-03T06:39:02.603Z,113.05
2022-08-03T06:39:35.196Z,159.05
2022-08-03T06:40:07.861Z,138.07
2022-08-03T06:40:40.341Z,104.72
2022-08-03T06:41:12.890Z,145.75
2022-08-03T06:41:45.646Z,116.55
2022-08-03T06:42:18.390Z,103.72
2022-08-03T06:42:55.856Z,107.88
2022-08-03T06:43:28.384Z,132.90
2022-08-03T06:44:08.394Z,104.88
2022-08-03T06:44:42.679Z,144.25
2022-08-03T06:45:15.041Z,152.57
2022-08-03T06:45:47.672Z,137.05
2022-08-03T06:46:20.249Z,128.25
2022-08-03T06:46:53.236Z,100.72
2022-08-03T06:47:25.555Z,110.68
2022-08-03T06:48:15.867Z,115.35
2022-08-03T06:48:48.723Z,95.55
2022-08-03T06:49:21.150Z,126.20
2022-08-03T06:50:12.822Z,116.65
2022-08-03T06:50:46.135Z,142.13
2022-08-03T06:51:18.630Z,112.10
2022-08-03T06:52:05.424Z,106.07
2022-08-03T06:52:39.498Z,104.65
2022-08-03T06:53:18.203Z,130.70
2022-08-03T06:53:53.643Z,96.22
2022-08-03T06:54:26.137Z,116.10
2022-08-03T06:54:58.777Z,95.25
2022-08-03T06:55:31.563Z,133.10
2022-08-03T06:56:07.460Z,131.38
2022-08-03T06:56:39.915Z,137.80
2022-08-03T06:57:13.455Z,93.70
2022-08-03T06:57:45.878Z,36.13
2022-08-03T06:58:18.412Z,89.05
2022-08-03T06:58:50.741Z,86.53
2022-08-03T07:00:10.234Z,99.88
2022-08-03T07:00:15.719Z,111.97
2022-08-03T07:00:48.292Z,127.45
2022-08-03T07:01:20.744Z,88.90
2022-08-03T07:01:53.252Z,34.63
2022-08-03T07:02:28.248Z,65.43
2022-08-03T07:03:01.470Z,32.72
2022-08-03T07:03:33.813Z,66.47
2022-08-03T07:04:06.380Z,48.05
2022-08-03T07:04:39.775Z,23.15
2022-08-03T07:05:12.341Z,27.70
2022-08-03T07:05:47.193Z,28.88
2022-08-03T07:06:19.681Z,69.60
2022-08-03T07:06:52.626Z,71.05
2022-08-03T07:07:25.155Z,69.32
2022-08-03T07:08:02.232Z,93.80
2022-08-03T07:08:34.703Z,47.58
2022-08-03T07:09:07.084Z,36.72
2022-08-03T07:09:39.557Z,49.78
2022-08-03T07:10:14.212Z,54.33
2022-08-03T07:10:46.669Z,25.30
2022-08-03T07:11:19.073Z,88.55
2022-08-03T07:11:51.401Z,32.90
2022-08-03T07:12:23.807Z,80.25
2022-08-03T07:12:56.980Z,73.85
2022-08-03T07:13:29.679Z,46.30
2022-08-03T07:14:02.072Z,50.28
2022-08-03T07:14:34.395Z,97.47
2022-08-03T07:15:07.064Z,35.08
2022-08-03T07:15:55.304Z,91.18
2022-08-03T07:16:28.361Z,70.30
2022-08-03T07:17:00.680Z,106.93
2022-08-03T07:17:34.877Z,52.08
2022-08-03T07:18:07.383Z,110.00
2022-08-03T07:18:40.123Z,115.22
2022-08-03T07:19:12.512Z,89.03
2022-08-03T07:19:45.096Z,112.53
2022-08-03T07:20:18.452Z,82.38
2022-08-03T07:20:51.071Z,85.07
2022-08-03T07:21:23.497Z,116.25
2022-08-03T07:21:56.677Z,130.82
2022-08-03T07:22:35.821Z,117.05
2022-08-03T07:23:08.150Z,108.78
2022-08-03T07:23:40.570Z,100.15
2022-08-03T07:24:13.220Z,108.80
2022-08-03T07:24:45.926Z,97.85
2022-08-03T07:25:18.447Z,75.80
2022-08-03T07:25:51.191Z,62.63
2022-08-03T07:26:23.707Z,24.70
2022-08-03T07:26:56.096Z,106.88
2022-08-03T07:27:29.541Z,37.72
2022-08-03T07:28:01.943Z,107.57
2022-08-03T07:28:34.496Z,101.05
2022-08-03T07:29:07.880Z,109.38
2022-08-03T07:29:47.569Z,100.80
2022-08-03T07:30:20.535Z,102.10